sensor_id;sensor_type;location;lat;lon;timestamp;P1;durP1;ratioP1;P2;durP2;ratioP2
18929;SDS011;43305;52.186;5.598;2024-02-15T00:02:00;32.55;;;12.40;;
18929;SDS011;43305;52.186;5.598;2024-02-15T00:04:27;35.38;;;12.63;;
18929;SDS011;43305;52.186;5.598;2024-02-15T00:06:53;36.38;;;13.32;;
18929;SDS011;43305;52.186;5.598;2024-02-15T00:09:22;32.58;;;11.95;;
18929;SDS011;43305;52.186;5.598;2024-02-15T00:11:48;34.63;;;12.80;;
18929;SDS011;43305;52.186;5.598;2024-02-15T00:14:19;25.25;;;13.40;;
18929;SDS011;43305;52.186;5.598;2024-02-15T00:16:50;28.45;;;13.48;;
18929;SDS011;43305;52.186;5.598;2024-02-15T00:19:19;29.48;;;13.43;;
18929;SDS011;43305;52.186;5.598;2024-02-15T00:21:47;28.45;;;13.38;;
18929;SDS011;43305;52.186;5.598;2024-02-15T00:24:14;31.40;;;13.95;;
18929;SDS011;43305;52.186;5.598;2024-02-15T00:26:42;30.98;;;13.52;;
18929;SDS011;43305;52.186;5.598;2024-02-15T00:29:09;34.72;;;13.90;;
18929;SDS011;43305;52.186;5.598;2024-02-15T00:31:36;28.17;;;13.82;;
18929;SDS011;43305;52.186;5.598;2024-02-15T00:34:04;30.02;;;13.90;;
18929;SDS011;43305;52.186;5.598;2024-02-15T00:36:31;27.23;;;14.05;;
18929;SDS011;43305;52.186;5.598;2024-02-15T00:38:58;32.75;;;14.27;;
18929;SDS011;43305;52.186;5.598;2024-02-15T00:41:25;29.35;;;13.85;;
18929;SDS011;43305;52.186;5.598;2024-02-15T00:43:54;31.70;;;13.52;;
18929;SDS011;43305;52.186;5.598;2024-02-15T00:46:21;25.05;;;13.63;;
18929;SDS011;43305;52.186;5.598;2024-02-15T00:48:54;28.63;;;13.95;;
18929;SDS011;43305;52.186;5.598;2024-02-15T00:51:20;28.02;;;13.70;;
18929;SDS011;43305;52.186;5.598;2024-02-15T00:53:52;34.50;;;14.27;;
18929;SDS011;43305;52.186;5.598;2024-02-15T00:56:22;28.70;;;13.77;;
18929;SDS011;43305;52.186;5.598;2024-02-15T00:58:53;28.25;;;13.02;;
18929;SDS011;43305;52.186;5.598;2024-02-15T01:01:20;26.80;;;12.88;;
18929;SDS011;43305;52.186;5.598;2024-02-15T01:03:48;25.05;;;12.80;;
18929;SDS011;43305;52.186;5.598;2024-02-15T01:06:18;24.77;;;12.73;;
18929;SDS011;43305;52.186;5.598;2024-02-15T01:08:45;25.23;;;12.60;;
18929;SDS011;43305;52.186;5.598;2024-02-15T01:11:12;26.77;;;12.10;;
18929;SDS011;43305;52.186;5.598;2024-02-15T01:13:39;27.10;;;13.30;;
18929;SDS011;43305;52.186;5.598;2024-02-15T01:16:07;27.75;;;12.85;;
18929;SDS011;43305;52.186;5.598;2024-02-15T01:18:34;25.88;;;12.38;;
18929;SDS011;43305;52.186;5.598;2024-02-15T01:21:03;32.38;;;13.10;;
18929;SDS011;43305;52.186;5.598;2024-02-15T01:23:31;29.83;;;13.18;;
18929;SDS011;43305;52.186;5.598;2024-02-15T01:25:58;29.05;;;13.60;;
18929;SDS011;43305;52.186;5.598;2024-02-15T01:28:26;30.30;;;13.35;;
18929;SDS011;43305;52.186;5.598;2024-02-15T01:30:52;28.70;;;13.90;;
18929;SDS011;43305;52.186;5.598;2024-02-15T01:33:21;28.20;;;13.98;;
18929;SDS011;43305;52.186;5.598;2024-02-15T01:35:48;29.50;;;15.05;;
18929;SDS011;43305;52.186;5.598;2024-02-15T01:38:15;33.28;;;15.73;;
18929;SDS011;43305;52.186;5.598;2024-02-15T01:40:42;30.45;;;16.42;;
18929;SDS011;43305;52.186;5.598;2024-02-15T01:43:09;30.77;;;17.38;;
18929;SDS011;43305;52.186;5.598;2024-02-15T01:45:36;35.53;;;18.80;;
18929;SDS011;43305;52.186;5.598;2024-02-15T01:48:03;34.67;;;20.05;;
18929;SDS011;43305;52.186;5.598;2024-02-15T01:50:32;40.53;;;21.48;;
18929;SDS011;43305;52.186;5.598;2024-02-15T01:53:00;42.78;;;22.08;;
18929;SDS011;43305;52.186;5.598;2024-02-15T01:55:29;49.20;;;23.58;;
18929;SDS011;43305;52.186;5.598;2024-02-15T01:57:57;44.80;;;23.90;;
18929;SDS011;43305;52.186;5.598;2024-02-15T02:00:25;43.70;;;24.63;;
18929;SDS011;43305;52.186;5.598;2024-02-15T02:02:52;49.97;;;25.90;;
18929;SDS011;43305;52.186;5.598;2024-02-15T02:05:24;48.95;;;25.98;;
18929;SDS011;43305;52.186;5.598;2024-02-15T02:07:54;48.45;;;25.92;;
18929;SDS011;43305;52.186;5.598;2024-02-15T02:10:22;47.67;;;25.33;;
18929;SDS011;43305;52.186;5.598;2024-02-15T02:12:52;45.45;;;24.25;;
18929;SDS011;43305;52.186;5.598;2024-02-15T02:15:22;49.88;;;26.55;;
18929;SDS011;43305;52.186;5.598;2024-02-15T02:17:49;45.03;;;24.75;;
18929;SDS011;43305;52.186;5.598;2024-02-15T02:20:22;50.08;;;25.88;;
18929;SDS011;43305;52.186;5.598;2024-02-15T02:22:49;48.72;;;24.27;;
18929;SDS011;43305;52.186;5.598;2024-02-15T02:25:24;45.88;;;24.38;;
18929;SDS011;43305;52.186;5.598;2024-02-15T02:27:52;42.65;;;23.33;;
18929;SDS011;43305;52.186;5.598;2024-02-15T02:30:20;47.92;;;23.20;;
18929;SDS011;43305;52.186;5.598;2024-02-15T02:32:48;40.33;;;22.63;;
18929;SDS011;43305;52.186;5.598;2024-02-15T02:35:15;50.70;;;23.48;;
18929;SDS011;43305;52.186;5.598;2024-02-15T02:37:42;41.78;;;22.40;;
18929;SDS011;43305;52.186;5.598;2024-02-15T02:40:09;43.30;;;22.38;;
18929;SDS011;43305;52.186;5.598;2024-02-15T02:42:47;39.47;;;21.27;;
18929;SDS011;43305;52.186;5.598;2024-02-15T02:45:15;44.63;;;22.48;;
18929;SDS011;43305;52.186;5.598;2024-02-15T02:47:42;42.65;;;22.23;;
18929;SDS011;43305;52.186;5.598;2024-02-15T02:50:09;43.05;;;21.80;;
18929;SDS011;43305;52.186;5.598;2024-02-15T02:52:36;39.38;;;21.73;;
18929;SDS011;43305;52.186;5.598;2024-02-15T02:55:04;40.67;;;21.52;;
18929;SDS011;43305;52.186;5.598;2024-02-15T02:57:33;45.22;;;21.77;;
18929;SDS011;43305;52.186;5.598;2024-02-15T03:00:02;39.70;;;21.15;;
18929;SDS011;43305;52.186;5.598;2024-02-15T03:02:33;40.28;;;21.20;;
18929;SDS011;43305;52.186;5.598;2024-02-15T03:05:01;45.85;;;22.00;;
18929;SDS011;43305;52.186;5.598;2024-02-15T03:07:32;41.47;;;21.05;;
18929;SDS011;43305;52.186;5.598;2024-02-15T03:09:59;41.90;;;20.90;;
18929;SDS011;43305;52.186;5.598;2024-02-15T03:12:26;39.95;;;20.50;;
18929;SDS011;43305;52.186;5.598;2024-02-15T03:14:55;43.38;;;20.02;;
18929;SDS011;43305;52.186;5.598;2024-02-15T03:17:26;38.13;;;19.33;;
18929;SDS011;43305;52.186;5.598;2024-02-15T03:19:52;36.60;;;19.55;;
18929;SDS011;43305;52.186;5.598;2024-02-15T03:22:20;39.22;;;20.17;;
18929;SDS011;43305;52.186;5.598;2024-02-15T03:24:52;42.22;;;19.48;;
18929;SDS011;43305;52.186;5.598;2024-02-15T03:27:22;38.45;;;17.50;;
18929;SDS011;43305;52.186;5.598;2024-02-15T03:29:49;34.90;;;17.33;;
18929;SDS011;43305;52.186;5.598;2024-02-15T03:32:21;37.88;;;17.88;;
18929;SDS011;43305;52.186;5.598;2024-02-15T03:34:52;37.72;;;17.77;;
18929;SDS011;43305;52.186;5.598;2024-02-15T03:37:22;33.67;;;17.10;;
18929;SDS011;43305;52.186;5.598;2024-02-15T03:39:49;40.55;;;16.60;;
18929;SDS011;43305;52.186;5.598;2024-02-15T03:42:16;35.28;;;16.40;;
18929;SDS011;43305;52.186;5.598;2024-02-15T03:44:46;33.20;;;15.85;;
18929;SDS011;43305;52.186;5.598;2024-02-15T03:47:13;35.60;;;16.35;;
18929;SDS011;43305;52.186;5.598;2024-02-15T03:49:40;30.70;;;15.15;;
18929;SDS011;43305;52.186;5.598;2024-02-15T03:52:08;35.22;;;16.02;;
18929;SDS011;43305;52.186;5.598;2024-02-15T03:54:35;30.30;;;15.13;;
18929;SDS011;43305;52.186;5.598;2024-02-15T03:57:05;29.88;;;14.38;;
18929;SDS011;43305;52.186;5.598;2024-02-15T03:59:32;39.28;;;14.82;;
18929;SDS011;43305;52.186;5.598;2024-02-15T04:02:00;32.78;;;14.88;;
18929;SDS011;43305;52.186;5.598;2024-02-15T04:04:29;31.77;;;15.10;;
18929;SDS011;43305;52.186;5.598;2024-02-15T04:06:56;26.08;;;13.90;;
18929;SDS011;43305;52.186;5.598;2024-02-15T04:09:24;33.30;;;15.02;;
18929;SDS011;43305;52.186;5.598;2024-02-15T04:11:51;29.90;;;15.13;;
18929;SDS011;43305;52.186;5.598;2024-02-15T04:14:22;33.95;;;14.77;;
18929;SDS011;43305;52.186;5.598;2024-02-15T04:16:49;36.03;;;14.52;;
18929;SDS011;43305;52.186;5.598;2024-02-15T04:19:16;31.50;;;14.15;;
18929;SDS011;43305;52.186;5.598;2024-02-15T04:21:45;33.50;;;14.50;;
18929;SDS011;43305;52.186;5.598;2024-02-15T04:24:12;30.60;;;13.52;;
18929;SDS011;43305;52.186;5.598;2024-02-15T04:26:40;32.55;;;14.20;;
18929;SDS011;43305;52.186;5.598;2024-02-15T04:29:07;30.42;;;13.27;;
18929;SDS011;43305;52.186;5.598;2024-02-15T04:31:35;31.02;;;13.82;;
18929;SDS011;43305;52.186;5.598;2024-02-15T04:34:04;33.13;;;13.93;;
18929;SDS011;43305;52.186;5.598;2024-02-15T04:36:31;30.23;;;13.43;;
18929;SDS011;43305;52.186;5.598;2024-02-15T04:38:59;34.83;;;12.68;;
18929;SDS011;43305;52.186;5.598;2024-02-15T04:41:27;31.55;;;12.43;;
18929;SDS011;43305;52.186;5.598;2024-02-15T04:43:55;29.33;;;13.02;;
18929;SDS011;43305;52.186;5.598;2024-02-15T04:46:22;26.77;;;12.30;;
18929;SDS011;43305;52.186;5.598;2024-02-15T04:48:50;31.88;;;12.43;;
18929;SDS011;43305;52.186;5.598;2024-02-15T04:51:17;30.80;;;12.05;;
18929;SDS011;43305;52.186;5.598;2024-02-15T04:53:44;32.42;;;12.98;;
18929;SDS011;43305;52.186;5.598;2024-02-15T04:56:13;30.02;;;12.90;;
18929;SDS011;43305;52.186;5.598;2024-02-15T04:58:41;29.42;;;11.45;;
18929;SDS011;43305;52.186;5.598;2024-02-15T05:01:13;26.98;;;12.60;;
18929;SDS011;43305;52.186;5.598;2024-02-15T05:03:40;29.17;;;12.00;;
18929;SDS011;43305;52.186;5.598;2024-02-15T05:06:07;26.40;;;11.55;;
18929;SDS011;43305;52.186;5.598;2024-02-15T05:08:35;33.22;;;12.32;;
18929;SDS011;43305;52.186;5.598;2024-02-15T05:11:03;24.75;;;11.75;;
18929;SDS011;43305;52.186;5.598;2024-02-15T05:13:32;28.40;;;12.38;;
18929;SDS011;43305;52.186;5.598;2024-02-15T05:15:59;27.13;;;11.90;;
18929;SDS011;43305;52.186;5.598;2024-02-15T05:18:27;25.85;;;12.18;;
18929;SDS011;43305;52.186;5.598;2024-02-15T05:20:55;25.15;;;12.18;;
18929;SDS011;43305;52.186;5.598;2024-02-15T05:23:22;30.92;;;12.75;;
18929;SDS011;43305;52.186;5.598;2024-02-15T05:25:49;30.88;;;12.18;;
18929;SDS011;43305;52.186;5.598;2024-02-15T05:28:19;22.45;;;10.85;;
18929;SDS011;43305;52.186;5.598;2024-02-15T05:33:38;26.80;;;11.98;;
18929;SDS011;43305;52.186;5.598;2024-02-15T05:36:07;28.33;;;11.38;;
18929;SDS011;43305;52.186;5.598;2024-02-15T05:38:35;30.38;;;12.00;;
18929;SDS011;43305;52.186;5.598;2024-02-15T05:41:02;28.13;;;11.80;;
18929;SDS011;43305;52.186;5.598;2024-02-15T05:43:29;30.92;;;12.38;;
18929;SDS011;43305;52.186;5.598;2024-02-15T05:45:57;25.95;;;11.65;;
18929;SDS011;43305;52.186;5.598;2024-02-15T05:48:24;27.67;;;12.57;;
18929;SDS011;43305;52.186;5.598;2024-02-15T05:50:52;26.20;;;12.95;;
18929;SDS011;43305;52.186;5.598;2024-02-15T05:53:22;23.48;;;12.25;;
18929;SDS011;43305;52.186;5.598;2024-02-15T05:55:52;25.20;;;12.30;;
18929;SDS011;43305;52.186;5.598;2024-02-15T05:58:21;25.60;;;13.02;;
18929;SDS011;43305;52.186;5.598;2024-02-15T06:00:50;23.50;;;12.75;;
18929;SDS011;43305;52.186;5.598;2024-02-15T06:03:20;27.30;;;12.35;;
18929;SDS011;43305;52.186;5.598;2024-02-15T06:05:48;25.27;;;13.02;;
18929;SDS011;43305;52.186;5.598;2024-02-15T06:08:24;25.15;;;12.48;;
18929;SDS011;43305;52.186;5.598;2024-02-15T06:10:54;25.88;;;12.95;;
18929;SDS011;43305;52.186;5.598;2024-02-15T06:13:25;24.42;;;12.50;;
18929;SDS011;43305;52.186;5.598;2024-02-15T06:15:52;23.38;;;12.32;;
18929;SDS011;43305;52.186;5.598;2024-02-15T06:18:23;26.23;;;12.43;;
18929;SDS011;43305;52.186;5.598;2024-02-15T06:20:52;24.00;;;12.95;;
18929;SDS011;43305;52.186;5.598;2024-02-15T06:23:26;24.50;;;12.32;;
18929;SDS011;43305;52.186;5.598;2024-02-15T06:25:53;26.45;;;12.65;;
18929;SDS011;43305;52.186;5.598;2024-02-15T06:28:21;24.38;;;12.45;;
18929;SDS011;43305;52.186;5.598;2024-02-15T06:31:09;25.92;;;13.15;;
18929;SDS011;43305;52.186;5.598;2024-02-15T06:33:54;21.40;;;12.90;;
18929;SDS011;43305;52.186;5.598;2024-02-15T06:36:39;24.20;;;12.45;;
18929;SDS011;43305;52.186;5.598;2024-02-15T06:39:25;26.40;;;12.98;;
18929;SDS011;43305;52.186;5.598;2024-02-15T06:42:11;28.40;;;12.82;;
18929;SDS011;43305;52.186;5.598;2024-02-15T06:44:40;29.67;;;13.98;;
18929;SDS011;43305;52.186;5.598;2024-02-15T06:47:07;20.50;;;12.57;;
18929;SDS011;43305;52.186;5.598;2024-02-15T06:49:36;26.45;;;14.02;;
18929;SDS011;43305;52.186;5.598;2024-02-15T06:52:05;25.73;;;13.60;;
18929;SDS011;43305;52.186;5.598;2024-02-15T06:54:33;23.63;;;13.77;;
18929;SDS011;43305;52.186;5.598;2024-02-15T06:57:01;30.95;;;13.93;;
18929;SDS011;43305;52.186;5.598;2024-02-15T06:59:29;26.77;;;13.50;;
18929;SDS011;43305;52.186;5.598;2024-02-15T07:01:57;27.20;;;14.13;;
18929;SDS011;43305;52.186;5.598;2024-02-15T07:04:23;26.08;;;13.25;;
18929;SDS011;43305;52.186;5.598;2024-02-15T07:06:51;28.67;;;15.35;;
18929;SDS011;43305;52.186;5.598;2024-02-15T07:09:24;25.05;;;14.25;;
18929;SDS011;43305;52.186;5.598;2024-02-15T07:11:54;23.05;;;14.20;;
18929;SDS011;43305;52.186;5.598;2024-02-15T07:14:20;27.25;;;14.57;;
18929;SDS011;43305;52.186;5.598;2024-02-15T07:16:47;27.23;;;14.07;;
18929;SDS011;43305;52.186;5.598;2024-02-15T07:19:15;26.42;;;14.02;;
18929;SDS011;43305;52.186;5.598;2024-02-15T07:21:43;26.13;;;14.60;;
18929;SDS011;43305;52.186;5.598;2024-02-15T07:24:12;24.92;;;14.50;;
18929;SDS011;43305;52.186;5.598;2024-02-15T07:26:39;27.98;;;14.73;;
18929;SDS011;43305;52.186;5.598;2024-02-15T07:29:07;25.13;;;14.63;;
18929;SDS011;43305;52.186;5.598;2024-02-15T07:31:36;23.92;;;13.98;;
18929;SDS011;43305;52.186;5.598;2024-02-15T07:34:05;25.20;;;13.95;;
18929;SDS011;43305;52.186;5.598;2024-02-15T07:36:32;25.80;;;14.52;;
18929;SDS011;43305;52.186;5.598;2024-02-15T07:39:00;25.00;;;14.93;;
18929;SDS011;43305;52.186;5.598;2024-02-15T07:41:28;25.95;;;15.05;;
18929;SDS011;43305;52.186;5.598;2024-02-15T07:43:56;23.33;;;15.05;;
18929;SDS011;43305;52.186;5.598;2024-02-15T07:46:25;23.10;;;15.40;;
18929;SDS011;43305;52.186;5.598;2024-02-15T07:48:55;31.95;;;14.57;;
18929;SDS011;43305;52.186;5.598;2024-02-15T07:51:25;24.30;;;14.02;;
18929;SDS011;43305;52.186;5.598;2024-02-15T07:53:52;25.83;;;14.93;;
18929;SDS011;43305;52.186;5.598;2024-02-15T07:56:20;28.23;;;14.93;;
18929;SDS011;43305;52.186;5.598;2024-02-15T07:58:48;23.67;;;14.73;;
18929;SDS011;43305;52.186;5.598;2024-02-15T08:01:17;24.35;;;13.93;;
18929;SDS011;43305;52.186;5.598;2024-02-15T08:03:47;22.90;;;14.13;;
18929;SDS011;43305;52.186;5.598;2024-02-15T08:06:15;24.52;;;13.90;;
18929;SDS011;43305;52.186;5.598;2024-02-15T08:08:43;21.42;;;13.65;;
18929;SDS011;43305;52.186;5.598;2024-02-15T08:11:11;22.15;;;12.98;;
18929;SDS011;43305;52.186;5.598;2024-02-15T08:13:42;21.83;;;13.07;;
18929;SDS011;43305;52.186;5.598;2024-02-15T08:16:10;21.23;;;13.45;;
18929;SDS011;43305;52.186;5.598;2024-02-15T08:18:37;20.42;;;13.02;;
18929;SDS011;43305;52.186;5.598;2024-02-15T08:21:06;22.02;;;13.00;;
18929;SDS011;43305;52.186;5.598;2024-02-15T08:23:33;19.92;;;11.20;;
18929;SDS011;43305;52.186;5.598;2024-02-15T08:25:59;17.17;;;11.13;;
18929;SDS011;43305;52.186;5.598;2024-02-15T08:28:26;17.90;;;11.60;;
18929;SDS011;43305;52.186;5.598;2024-02-15T08:30:54;18.10;;;11.38;;
18929;SDS011;43305;52.186;5.598;2024-02-15T08:33:24;16.55;;;10.73;;
18929;SDS011;43305;52.186;5.598;2024-02-15T08:35:53;19.48;;;10.77;;
18929;SDS011;43305;52.186;5.598;2024-02-15T08:38:22;15.73;;;10.38;;
18929;SDS011;43305;52.186;5.598;2024-02-15T08:40:49;11.77;;;9.55;;
18929;SDS011;43305;52.186;5.598;2024-02-15T08:43:17;15.27;;;9.82;;
18929;SDS011;43305;52.186;5.598;2024-02-15T08:45:44;16.63;;;9.80;;
18929;SDS011;43305;52.186;5.598;2024-02-15T08:48:11;15.85;;;10.10;;
18929;SDS011;43305;52.186;5.598;2024-02-15T08:50:38;17.50;;;10.15;;
18929;SDS011;43305;52.186;5.598;2024-02-15T08:53:06;13.95;;;9.88;;
18929;SDS011;43305;52.186;5.598;2024-02-15T08:55:34;12.55;;;8.98;;
18929;SDS011;43305;52.186;5.598;2024-02-15T08:58:02;12.93;;;8.48;;
18929;SDS011;43305;52.186;5.598;2024-02-15T09:00:29;14.73;;;9.23;;
18929;SDS011;43305;52.186;5.598;2024-02-15T09:02:56;12.65;;;8.27;;
18929;SDS011;43305;52.186;5.598;2024-02-15T09:05:23;9.77;;;7.32;;
18929;SDS011;43305;52.186;5.598;2024-02-15T09:07:50;11.10;;;7.45;;
18929;SDS011;43305;52.186;5.598;2024-02-15T09:10:24;11.75;;;7.18;;
18929;SDS011;43305;52.186;5.598;2024-02-15T09:12:52;10.15;;;6.50;;
18929;SDS011;43305;52.186;5.598;2024-02-15T09:15:22;10.93;;;7.03;;
18929;SDS011;43305;52.186;5.598;2024-02-15T09:17:49;10.07;;;6.75;;
18929;SDS011;43305;52.186;5.598;2024-02-15T09:20:17;9.00;;;6.07;;
18929;SDS011;43305;52.186;5.598;2024-02-15T09:22:47;8.82;;;5.88;;
18929;SDS011;43305;52.186;5.598;2024-02-15T09:25:15;9.38;;;6.13;;
18929;SDS011;43305;52.186;5.598;2024-02-15T09:27:42;8.95;;;5.90;;
18929;SDS011;43305;52.186;5.598;2024-02-15T09:30:14;12.57;;;5.93;;
18929;SDS011;43305;52.186;5.598;2024-02-15T09:32:41;8.55;;;5.28;;
18929;SDS011;43305;52.186;5.598;2024-02-15T09:35:09;9.57;;;5.32;;
18929;SDS011;43305;52.186;5.598;2024-02-15T09:37:38;10.25;;;5.90;;
18929;SDS011;43305;52.186;5.598;2024-02-15T09:40:09;9.98;;;5.40;;
18929;SDS011;43305;52.186;5.598;2024-02-15T09:42:37;9.75;;;5.82;;
18929;SDS011;43305;52.186;5.598;2024-02-15T09:45:05;10.57;;;5.80;;
18929;SDS011;43305;52.186;5.598;2024-02-15T09:47:33;10.35;;;5.80;;
18929;SDS011;43305;52.186;5.598;2024-02-15T09:50:01;15.20;;;6.90;;
18929;SDS011;43305;52.186;5.598;2024-02-15T09:52:29;13.77;;;5.80;;
18929;SDS011;43305;52.186;5.598;2024-02-15T09:54:58;10.57;;;6.65;;
18929;SDS011;43305;52.186;5.598;2024-02-15T09:57:28;18.33;;;10.15;;
18929;SDS011;43305;52.186;5.598;2024-02-15T09:59:57;12.88;;;6.55;;
18929;SDS011;43305;52.186;5.598;2024-02-15T10:02:24;11.75;;;5.78;;
18929;SDS011;43305;52.186;5.598;2024-02-15T10:04:53;12.60;;;6.88;;
18929;SDS011;43305;52.186;5.598;2024-02-15T10:07:22;14.50;;;7.97;;
18929;SDS011;43305;52.186;5.598;2024-02-15T10:09:49;16.13;;;7.78;;
18929;SDS011;43305;52.186;5.598;2024-02-15T10:12:18;14.25;;;7.22;;
18929;SDS011;43305;52.186;5.598;2024-02-15T10:14:49;14.48;;;6.70;;
18929;SDS011;43305;52.186;5.598;2024-02-15T10:17:22;11.13;;;6.30;;
18929;SDS011;43305;52.186;5.598;2024-02-15T10:20:03;11.75;;;6.28;;
18929;SDS011;43305;52.186;5.598;2024-02-15T10:22:31;14.65;;;6.50;;
18929;SDS011;43305;52.186;5.598;2024-02-15T10:27:48;14.93;;;7.15;;
18929;SDS011;43305;52.186;5.598;2024-02-15T10:30:16;12.93;;;6.32;;
18929;SDS011;43305;52.186;5.598;2024-02-15T10:32:44;17.75;;;6.72;;
18929;SDS011;43305;52.186;5.598;2024-02-15T10:38:05;14.38;;;6.65;;
18929;SDS011;43305;52.186;5.598;2024-02-15T10:40:33;18.48;;;6.68;;
18929;SDS011;43305;52.186;5.598;2024-02-15T10:43:02;17.85;;;6.65;;
18929;SDS011;43305;52.186;5.598;2024-02-15T10:45:30;16.75;;;6.70;;
18929;SDS011;43305;52.186;5.598;2024-02-15T10:47:58;16.25;;;6.45;;
18929;SDS011;43305;52.186;5.598;2024-02-15T10:50:24;16.10;;;6.75;;
18929;SDS011;43305;52.186;5.598;2024-02-15T10:52:56;14.48;;;6.20;;
18929;SDS011;43305;52.186;5.598;2024-02-15T10:55:27;13.68;;;5.90;;
18929;SDS011;43305;52.186;5.598;2024-02-15T10:58:03;12.90;;;5.60;;
18929;SDS011;43305;52.186;5.598;2024-02-15T11:00:32;13.20;;;5.82;;
18929;SDS011;43305;52.186;5.598;2024-02-15T11:03:02;16.27;;;5.70;;
18929;SDS011;43305;52.186;5.598;2024-02-15T11:05:32;11.85;;;5.45;;
18929;SDS011;43305;52.186;5.598;2024-02-15T11:08:05;12.90;;;5.60;;
18929;SDS011;43305;52.186;5.598;2024-02-15T11:10:36;14.10;;;5.60;;
18929;SDS011;43305;52.186;5.598;2024-02-15T11:13:05;12.55;;;5.28;;
18929;SDS011;43305;52.186;5.598;2024-02-15T11:15:42;14.07;;;6.00;;
18929;SDS011;43305;52.186;5.598;2024-02-15T11:21:14;13.98;;;6.95;;
18929;SDS011;43305;52.186;5.598;2024-02-15T11:23:45;12.18;;;6.25;;
18929;SDS011;43305;52.186;5.598;2024-02-15T11:32:36;15.82;;;6.90;;
18929;SDS011;43305;52.186;5.598;2024-02-15T11:35:04;14.48;;;7.25;;
18929;SDS011;43305;52.186;5.598;2024-02-15T11:43:49;17.05;;;7.05;;
18929;SDS011;43305;52.186;5.598;2024-02-15T11:46:23;15.63;;;6.88;;
18929;SDS011;43305;52.186;5.598;2024-02-15T11:48:54;15.88;;;7.28;;
18929;SDS011;43305;52.186;5.598;2024-02-15T11:51:31;14.73;;;6.70;;
18929;SDS011;43305;52.186;5.598;2024-02-15T11:54:02;18.05;;;7.78;;
18929;SDS011;43305;52.186;5.598;2024-02-15T11:56:52;13.93;;;7.13;;
18929;SDS011;43305;52.186;5.598;2024-02-15T11:59:38;18.98;;;7.30;;
18929;SDS011;43305;52.186;5.598;2024-02-15T12:02:18;13.75;;;7.05;;
18929;SDS011;43305;52.186;5.598;2024-02-15T12:05:03;16.02;;;6.60;;
18929;SDS011;43305;52.186;5.598;2024-02-15T12:07:53;15.63;;;6.65;;
18929;SDS011;43305;52.186;5.598;2024-02-15T12:10:37;14.18;;;6.30;;
18929;SDS011;43305;52.186;5.598;2024-02-15T12:13:23;16.23;;;7.05;;
18929;SDS011;43305;52.186;5.598;2024-02-15T12:16:07;14.00;;;6.70;;
18929;SDS011;43305;52.186;5.598;2024-02-15T12:18:51;18.40;;;6.43;;
18929;SDS011;43305;52.186;5.598;2024-02-15T12:21:23;14.27;;;6.88;;
18929;SDS011;43305;52.186;5.598;2024-02-15T12:23:54;14.23;;;6.90;;
18929;SDS011;43305;52.186;5.598;2024-02-15T12:26:22;15.77;;;7.00;;
18929;SDS011;43305;52.186;5.598;2024-02-15T12:28:51;16.17;;;6.40;;
18929;SDS011;43305;52.186;5.598;2024-02-15T12:31:22;15.15;;;7.35;;
18929;SDS011;43305;52.186;5.598;2024-02-15T12:34:01;14.13;;;6.60;;
18929;SDS011;43305;52.186;5.598;2024-02-15T12:36:31;13.18;;;6.95;;
18929;SDS011;43305;52.186;5.598;2024-02-15T12:38:59;17.00;;;7.30;;
18929;SDS011;43305;52.186;5.598;2024-02-15T12:41:26;13.85;;;7.05;;
18929;SDS011;43305;52.186;5.598;2024-02-15T12:43:54;15.82;;;8.05;;
18929;SDS011;43305;52.186;5.598;2024-02-15T12:46:23;13.50;;;7.25;;
18929;SDS011;43305;52.186;5.598;2024-02-15T12:49:06;12.32;;;7.18;;
18929;SDS011;43305;52.186;5.598;2024-02-15T12:51:38;12.68;;;6.28;;
18929;SDS011;43305;52.186;5.598;2024-02-15T12:54:08;11.18;;;6.32;;
18929;SDS011;43305;52.186;5.598;2024-02-15T12:56:36;12.63;;;6.10;;
18929;SDS011;43305;52.186;5.598;2024-02-15T12:59:06;13.73;;;6.47;;
18929;SDS011;43305;52.186;5.598;2024-02-15T13:01:32;13.27;;;6.40;;
18929;SDS011;43305;52.186;5.598;2024-02-15T13:03:59;13.00;;;6.10;;
18929;SDS011;43305;52.186;5.598;2024-02-15T13:06:27;11.10;;;5.68;;
18929;SDS011;43305;52.186;5.598;2024-02-15T13:08:54;11.48;;;5.78;;
18929;SDS011;43305;52.186;5.598;2024-02-15T13:11:20;12.15;;;5.20;;
18929;SDS011;43305;52.186;5.598;2024-02-15T13:13:48;13.25;;;4.82;;
18929;SDS011;43305;52.186;5.598;2024-02-15T13:16:17;12.13;;;5.15;;
18929;SDS011;43305;52.186;5.598;2024-02-15T13:18:45;14.55;;;5.07;;
18929;SDS011;43305;52.186;5.598;2024-02-15T13:21:12;8.93;;;4.47;;
18929;SDS011;43305;52.186;5.598;2024-02-15T13:23:39;9.88;;;4.53;;
18929;SDS011;43305;52.186;5.598;2024-02-15T13:26:06;8.82;;;4.47;;
18929;SDS011;43305;52.186;5.598;2024-02-15T13:28:33;11.57;;;4.53;;
18929;SDS011;43305;52.186;5.598;2024-02-15T13:31:00;11.18;;;4.20;;
18929;SDS011;43305;52.186;5.598;2024-02-15T13:33:29;11.55;;;4.28;;
18929;SDS011;43305;52.186;5.598;2024-02-15T13:35:56;9.35;;;4.38;;
18929;SDS011;43305;52.186;5.598;2024-02-15T13:38:23;8.73;;;3.92;;
18929;SDS011;43305;52.186;5.598;2024-02-15T13:40:51;9.07;;;3.67;;
18929;SDS011;43305;52.186;5.598;2024-02-15T13:43:22;8.13;;;3.55;;
18929;SDS011;43305;52.186;5.598;2024-02-15T13:45:49;5.85;;;3.60;;
18929;SDS011;43305;52.186;5.598;2024-02-15T13:48:19;7.55;;;3.38;;
18929;SDS011;43305;52.186;5.598;2024-02-15T13:50:50;9.00;;;3.95;;
18929;SDS011;43305;52.186;5.598;2024-02-15T13:53:18;6.78;;;4.00;;
18929;SDS011;43305;52.186;5.598;2024-02-15T13:55:53;7.63;;;3.63;;
18929;SDS011;43305;52.186;5.598;2024-02-15T13:58:20;9.80;;;3.65;;
18929;SDS011;43305;52.186;5.598;2024-02-15T14:00:52;9.68;;;3.63;;
18929;SDS011;43305;52.186;5.598;2024-02-15T14:03:19;8.88;;;3.70;;
18929;SDS011;43305;52.186;5.598;2024-02-15T14:05:53;8.73;;;3.42;;
18929;SDS011;43305;52.186;5.598;2024-02-15T14:08:20;7.50;;;3.53;;
18929;SDS011;43305;52.186;5.598;2024-02-15T14:10:50;9.32;;;3.25;;
18929;SDS011;43305;52.186;5.598;2024-02-15T14:13:17;11.43;;;3.20;;
18929;SDS011;43305;52.186;5.598;2024-02-15T14:15:47;9.70;;;3.10;;
18929;SDS011;43305;52.186;5.598;2024-02-15T14:18:13;8.30;;;3.50;;
18929;SDS011;43305;52.186;5.598;2024-02-15T14:20:46;9.93;;;3.25;;
18929;SDS011;43305;52.186;5.598;2024-02-15T14:23:17;8.75;;;3.30;;
18929;SDS011;43305;52.186;5.598;2024-02-15T14:25:44;9.63;;;3.33;;
18929;SDS011;43305;52.186;5.598;2024-02-15T14:28:11;7.05;;;3.35;;
18929;SDS011;43305;52.186;5.598;2024-02-15T14:30:39;6.43;;;3.05;;
18929;SDS011;43305;52.186;5.598;2024-02-15T14:33:24;9.88;;;3.30;;
18929;SDS011;43305;52.186;5.598;2024-02-15T14:35:51;7.35;;;3.17;;
18929;SDS011;43305;52.186;5.598;2024-02-15T14:38:21;6.82;;;3.20;;
18929;SDS011;43305;52.186;5.598;2024-02-15T14:40:51;8.60;;;3.38;;
18929;SDS011;43305;52.186;5.598;2024-02-15T14:43:22;10.25;;;3.20;;
18929;SDS011;43305;52.186;5.598;2024-02-15T14:45:51;7.93;;;3.55;;
18929;SDS011;43305;52.186;5.598;2024-02-15T14:48:24;7.57;;;3.20;;
18929;SDS011;43305;52.186;5.598;2024-02-15T14:50:51;7.25;;;2.97;;
18929;SDS011;43305;52.186;5.598;2024-02-15T14:53:18;5.95;;;3.17;;
18929;SDS011;43305;52.186;5.598;2024-02-15T14:55:47;7.63;;;3.40;;
18929;SDS011;43305;52.186;5.598;2024-02-15T14:58:17;10.90;;;3.35;;
18929;SDS011;43305;52.186;5.598;2024-02-15T15:00:43;9.13;;;4.10;;
18929;SDS011;43305;52.186;5.598;2024-02-15T15:03:11;7.55;;;3.45;;
18929;SDS011;43305;52.186;5.598;2024-02-15T15:05:38;9.75;;;2.97;;